sensor_id;sensor_type;location;lat;lon;timestamp;temperature;humidity
21582;DHT22;10952;50.836;4.348;2022-10-16T00:01:42;16.00;99.90
21582;DHT22;10952;50.836;4.348;2022-10-16T00:04:08;16.00;99.90
21582;DHT22;10952;50.836;4.348;2022-10-16T00:06:34;16.10;99.90
21582;DHT22;10952;50.836;4.348;2022-10-16T00:09:00;16.10;99.90
21582;DHT22;10952;50.836;4.348;2022-10-16T00:11:29;16.00;99.90
21582;DHT22;10952;50.836;4.348;2022-10-16T00:13:58;16.00;99.90
21582;DHT22;10952;50.836;4.348;2022-10-16T00:16:24;16.00;99.90
21582;DHT22;10952;50.836;4.348;2022-10-16T00:18:50;16.00;99.90
21582;DHT22;10952;50.836;4.348;2022-10-16T00:21:21;16.10;99.90
21582;DHT22;10952;50.836;4.348;2022-10-16T00:23:52;16.00;99.90
21582;DHT22;10952;50.836;4.348;2022-10-16T00:26:18;16.00;99.90
21582;DHT22;10952;50.836;4.348;2022-10-16T00:28:51;16.00;99.90
21582;DHT22;10952;50.836;4.348;2022-10-16T00:31:18;15.90;99.90
21582;DHT22;10952;50.836;4.348;2022-10-16T00:33:44;15.90;99.90
21582;DHT22;10952;50.836;4.348;2022-10-16T00:36:12;15.90;99.90
21582;DHT22;10952;50.836;4.348;2022-10-16T00:38:39;15.80;99.90
21582;DHT22;10952;50.836;4.348;2022-10-16T00:41:07;15.80;99.90
21582;DHT22;10952;50.836;4.348;2022-10-16T00:43:54;15.80;99.90
21582;DHT22;10952;50.836;4.348;2022-10-16T00:49:10;15.80;99.90
21582;DHT22;10952;50.836;4.348;2022-10-16T00:51:48;15.90;99.90
21582;DHT22;10952;50.836;4.348;2022-10-16T00:54:22;15.90;99.90
21582;DHT22;10952;50.836;4.348;2022-10-16T00:56:49;15.70;99.90
21582;DHT22;10952;50.836;4.348;2022-10-16T00:59:24;15.80;99.90
21582;DHT22;10952;50.836;4.348;2022-10-16T01:01:50;15.80;99.90
21582;DHT22;10952;50.836;4.348;2022-10-16T01:04:17;15.70;99.90
21582;DHT22;10952;50.836;4.348;2022-10-16T01:09:28;15.60;99.90
21582;DHT22;10952;50.836;4.348;2022-10-16T01:15:22;15.60;99.90
21582;DHT22;10952;50.836;4.348;2022-10-16T01:20:19;15.70;99.90
21582;DHT22;10952;50.836;4.348;2022-10-16T01:28:24;15.70;99.90
21582;DHT22;10952;50.836;4.348;2022-10-16T01:30:54;15.70;99.90
21582;DHT22;10952;50.836;4.348;2022-10-16T01:33:35;15.70;99.90
21582;DHT22;10952;50.836;4.348;2022-10-16T01:36:10;15.60;99.90
21582;DHT22;10952;50.836;4.348;2022-10-16T01:38:39;15.70;99.90
21582;DHT22;10952;50.836;4.348;2022-10-16T01:41:21;15.60;99.90
21582;DHT22;10952;50.836;4.348;2022-10-16T01:44:02;15.60;99.90
21582;DHT22;10952;50.836;4.348;2022-10-16T01:46:31;15.70;99.90
21582;DHT22;10952;50.836;4.348;2022-10-16T01:48:57;15.60;99.90
21582;DHT22;10952;50.836;4.348;2022-10-16T01:51:25;15.60;99.90
21582;DHT22;10952;50.836;4.348;2022-10-16T01:53:54;15.60;99.90
21582;DHT22;10952;50.836;4.348;2022-10-16T01:56:21;15.50;99.90
21582;DHT22;10952;50.836;4.348;2022-10-16T01:59:17;15.50;99.90
21582;DHT22;10952;50.836;4.348;2022-10-16T02:01:47;15.60;99.90
21582;DHT22;10952;50.836;4.348;2022-10-16T02:04:26;15.50;99.90
21582;DHT22;10952;50.836;4.348;2022-10-16T02:06:54;15.60;99.90
21582;DHT22;10952;50.836;4.348;2022-10-16T02:09:19;15.60;99.90
21582;DHT22;10952;50.836;4.348;2022-10-16T02:11:45;15.50;99.90
21582;DHT22;10952;50.836;4.348;2022-10-16T02:14:11;15.50;99.90
21582;DHT22;10952;50.836;4.348;2022-10-16T02:16:42;15.60;99.90
21582;DHT22;10952;50.836;4.348;2022-10-16T02:19:08;15.50;99.90
21582;DHT22;10952;50.836;4.348;2022-10-16T02:21:43;15.50;99.90
21582;DHT22;10952;50.836;4.348;2022-10-16T02:24:15;15.50;99.90
21582;DHT22;10952;50.836;4.348;2022-10-16T02:27:05;15.50;99.90
21582;DHT22;10952;50.836;4.348;2022-10-16T02:29:38;15.40;99.90
21582;DHT22;10952;50.836;4.348;2022-10-16T02:32:06;15.50;99.90
21582;DHT22;10952;50.836;4.348;2022-10-16T02:34:33;15.50;99.90
21582;DHT22;10952;50.836;4.348;2022-10-16T02:37:01;15.60;99.90
21582;DHT22;10952;50.836;4.348;2022-10-16T02:39:29;15.40;99.90
21582;DHT22;10952;50.836;4.348;2022-10-16T02:41:55;15.50;99.90
21582;DHT22;10952;50.836;4.348;2022-10-16T02:44:21;15.50;99.90
21582;DHT22;10952;50.836;4.348;2022-10-16T02:46:47;15.50;99.90
21582;DHT22;10952;50.836;4.348;2022-10-16T02:49:12;15.40;99.90
21582;DHT22;10952;50.836;4.348;2022-10-16T02:51:38;15.50;99.90
21582;DHT22;10952;50.836;4.348;2022-10-16T02:54:04;15.50;99.90
21582;DHT22;10952;50.836;4.348;2022-10-16T02:56:30;15.50;99.90
21582;DHT22;10952;50.836;4.348;2022-10-16T02:58:56;15.40;99.90
21582;DHT22;10952;50.836;4.348;2022-10-16T03:01:22;15.40;99.90
21582;DHT22;10952;50.836;4.348;2022-10-16T03:03:48;15.40;99.90
21582;DHT22;10952;50.836;4.348;2022-10-16T03:06:14;15.60;99.90
21582;DHT22;10952;50.836;4.348;2022-10-16T03:08:39;15.50;99.90
21582;DHT22;10952;50.836;4.348;2022-10-16T03:11:05;15.40;99.90
21582;DHT22;10952;50.836;4.348;2022-10-16T03:13:31;15.40;99.90
21582;DHT22;10952;50.836;4.348;2022-10-16T03:15:56;15.40;99.90
21582;DHT22;10952;50.836;4.348;2022-10-16T03:18:22;15.30;99.90
21582;DHT22;10952;50.836;4.348;2022-10-16T03:20:47;15.40;99.90
21582;DHT22;10952;50.836;4.348;2022-10-16T03:23:13;15.30;99.90
21582;DHT22;10952;50.836;4.348;2022-10-16T03:25:39;15.30;99.90
21582;DHT22;10952;50.836;4.348;2022-10-16T03:28:05;15.40;99.90
21582;DHT22;10952;50.836;4.348;2022-10-16T03:30:31;15.50;99.90
21582;DHT22;10952;50.836;4.348;2022-10-16T03:32:56;15.50;99.90
21582;DHT22;10952;50.836;4.348;2022-10-16T03:35:22;15.50;99.90
21582;DHT22;10952;50.836;4.348;2022-10-16T03:37:48;15.50;99.90
21582;DHT22;10952;50.836;4.348;2022-10-16T03:40:14;15.40;99.90
21582;DHT22;10952;50.836;4.348;2022-10-16T03:42:41;15.40;99.90
21582;DHT22;10952;50.836;4.348;2022-10-16T03:45:07;15.40;99.90
21582;DHT22;10952;50.836;4.348;2022-10-16T03:47:33;15.40;99.90
21582;DHT22;10952;50.836;4.348;2022-10-16T03:49:59;15.40;99.90
21582;DHT22;10952;50.836;4.348;2022-10-16T03:52:25;15.30;99.90
21582;DHT22;10952;50.836;4.348;2022-10-16T03:54:51;15.40;99.90
21582;DHT22;10952;50.836;4.348;2022-10-16T03:57:16;15.40;99.90
21582;DHT22;10952;50.836;4.348;2022-10-16T03:59:42;15.40;99.90
21582;DHT22;10952;50.836;4.348;2022-10-16T04:02:08;15.40;99.90
21582;DHT22;10952;50.836;4.348;2022-10-16T04:04:34;15.40;99.90
21582;DHT22;10952;50.836;4.348;2022-10-16T04:06:59;15.40;99.90
21582;DHT22;10952;50.836;4.348;2022-10-16T04:09:25;15.40;99.90
21582;DHT22;10952;50.836;4.348;2022-10-16T04:11:51;15.30;99.90
21582;DHT22;10952;50.836;4.348;2022-10-16T04:14:16;15.30;99.90
21582;DHT22;10952;50.836;4.348;2022-10-16T04:16:42;15.40;99.90
21582;DHT22;10952;50.836;4.348;2022-10-16T04:19:09;15.40;99.90
21582;DHT22;10952;50.836;4.348;2022-10-16T04:21:35;15.40;99.90
21582;DHT22;10952;50.836;4.348;2022-10-16T04:24:01;15.30;99.90
21582;DHT22;10952;50.836;4.348;2022-10-16T04:26:26;15.30;99.90
21582;DHT22;10952;50.836;4.348;2022-10-16T04:28:52;15.30;99.90
21582;DHT22;10952;50.836;4.348;2022-10-16T04:31:18;15.40;99.90
21582;DHT22;10952;50.836;4.348;2022-10-16T04:33:44;15.30;99.90
21582;DHT22;10952;50.836;4.348;2022-10-16T04:36:09;15.20;99.90
21582;DHT22;10952;50.836;4.348;2022-10-16T04:38:35;15.20;99.90
21582;DHT22;10952;50.836;4.348;2022-10-16T04:41:03;15.30;99.90
21582;DHT22;10952;50.836;4.348;2022-10-16T04:43:29;15.30;99.90
21582;DHT22;10952;50.836;4.348;2022-10-16T04:45:55;15.30;99.90
21582;DHT22;10952;50.836;4.348;2022-10-16T04:48:22;15.30;99.90
21582;DHT22;10952;50.836;4.348;2022-10-16T04:50:48;15.20;99.90
21582;DHT22;10952;50.836;4.348;2022-10-16T04:53:13;15.20;99.90
21582;DHT22;10952;50.836;4.348;2022-10-16T04:55:40;15.20;99.90
21582;DHT22;10952;50.836;4.348;2022-10-16T04:58:06;15.20;99.90
21582;DHT22;10952;50.836;4.348;2022-10-16T05:00:33;15.20;99.90
21582;DHT22;10952;50.836;4.348;2022-10-16T05:02:58;15.30;99.90
21582;DHT22;10952;50.836;4.348;2022-10-16T05:05:26;15.30;99.90
21582;DHT22;10952;50.836;4.348;2022-10-16T05:07:52;15.10;99.90
21582;DHT22;10952;50.836;4.348;2022-10-16T05:10:19;15.10;99.90
21582;DHT22;10952;50.836;4.348;2022-10-16T05:12:44;15.10;99.90
21582;DHT22;10952;50.836;4.348;2022-10-16T05:15:10;15.10;99.90
21582;DHT22;10952;50.836;4.348;2022-10-16T05:17:36;15.10;99.90
21582;DHT22;10952;50.836;4.348;2022-10-16T05:20:02;15.00;99.90
21582;DHT22;10952;50.836;4.348;2022-10-16T05:22:28;15.00;99.90
21582;DHT22;10952;50.836;4.348;2022-10-16T05:24:54;14.90;99.90
21582;DHT22;10952;50.836;4.348;2022-10-16T05:27:20;15.00;99.90
21582;DHT22;10952;50.836;4.348;2022-10-16T05:29:46;15.00;99.90
21582;DHT22;10952;50.836;4.348;2022-10-16T05:32:13;15.00;99.90
21582;DHT22;10952;50.836;4.348;2022-10-16T05:34:39;14.90;99.90
21582;DHT22;10952;50.836;4.348;2022-10-16T05:37:05;14.90;99.90
21582;DHT22;10952;50.836;4.348;2022-10-16T05:39:31;14.90;99.90
21582;DHT22;10952;50.836;4.348;2022-10-16T05:41:56;15.00;99.90
21582;DHT22;10952;50.836;4.348;2022-10-16T05:44:22;15.00;99.90
21582;DHT22;10952;50.836;4.348;2022-10-16T05:46:48;15.00;99.90
21582;DHT22;10952;50.836;4.348;2022-10-16T05:49:14;14.90;99.90
21582;DHT22;10952;50.836;4.348;2022-10-16T05:51:40;15.00;99.90
21582;DHT22;10952;50.836;4.348;2022-10-16T05:54:06;15.00;99.90
21582;DHT22;10952;50.836;4.348;2022-10-16T05:56:32;15.00;99.90
21582;DHT22;10952;50.836;4.348;2022-10-16T05:58:57;15.00;99.90
21582;DHT22;10952;50.836;4.348;2022-10-16T06:01:23;15.00;99.90
21582;DHT22;10952;50.836;4.348;2022-10-16T06:03:52;15.00;99.90
21582;DHT22;10952;50.836;4.348;2022-10-16T06:06:24;15.10;99.90
21582;DHT22;10952;50.836;4.348;2022-10-16T06:08:52;15.00;99.90
21582;DHT22;10952;50.836;4.348;2022-10-16T06:11:23;15.00;99.90
21582;DHT22;10952;50.836;4.348;2022-10-16T06:13:53;14.90;99.90
21582;DHT22;10952;50.836;4.348;2022-10-16T06:16:20;14.90;99.90
21582;DHT22;10952;50.836;4.348;2022-10-16T06:18:46;15.00;99.90
21582;DHT22;10952;50.836;4.348;2022-10-16T06:21:21;14.90;99.90
21582;DHT22;10952;50.836;4.348;2022-10-16T06:23:47;14.90;99.90
21582;DHT22;10952;50.836;4.348;2022-10-16T06:26:15;14.90;99.90
21582;DHT22;10952;50.836;4.348;2022-10-16T06:28:42;15.00;99.90
21582;DHT22;10952;50.836;4.348;2022-10-16T06:31:10;15.00;99.90
21582;DHT22;10952;50.836;4.348;2022-10-16T06:33:36;15.00;99.90
21582;DHT22;10952;50.836;4.348;2022-10-16T06:36:07;14.90;99.90
21582;DHT22;10952;50.836;4.348;2022-10-16T06:38:34;15.00;99.90
21582;DHT22;10952;50.836;4.348;2022-10-16T06:41:01;15.00;99.90
21582;DHT22;10952;50.836;4.348;2022-10-16T06:43:28;15.10;99.90
21582;DHT22;10952;50.836;4.348;2022-10-16T06:45:59;15.10;99.90
21582;DHT22;10952;50.836;4.348;2022-10-16T06:48:25;15.20;99.90
21582;DHT22;10952;50.836;4.348;2022-10-16T06:53:29;15.40;99.90
21582;DHT22;10952;50.836;4.348;2022-10-16T06:55:55;15.40;99.90
21582;DHT22;10952;50.836;4.348;2022-10-16T06:58:21;15.40;99.90
21582;DHT22;10952;50.836;4.348;2022-10-16T07:00:47;15.50;99.90
21582;DHT22;10952;50.836;4.348;2022-10-16T07:03:13;15.50;99.90
21582;DHT22;10952;50.836;4.348;2022-10-16T07:05:40;15.40;99.90
21582;DHT22;10952;50.836;4.348;2022-10-16T07:08:06;15.40;99.90
21582;DHT22;10952;50.836;4.348;2022-10-16T07:10:32;15.40;99.90
21582;DHT22;10952;50.836;4.348;2022-10-16T07:12:57;15.40;99.90
21582;DHT22;10952;50.836;4.348;2022-10-16T07:15:25;15.30;99.90
21582;DHT22;10952;50.836;4.348;2022-10-16T07:17:50;15.40;99.90
21582;DHT22;10952;50.836;4.348;2022-10-16T07:20:16;15.40;99.90
21582;DHT22;10952;50.836;4.348;2022-10-16T07:22:42;15.40;99.90
21582;DHT22;10952;50.836;4.348;2022-10-16T07:25:08;15.40;99.90
21582;DHT22;10952;50.836;4.348;2022-10-16T07:27:34;15.40;99.90
21582;DHT22;10952;50.836;4.348;2022-10-16T07:30:00;15.40;99.90
21582;DHT22;10952;50.836;4.348;2022-10-16T07:32:26;15.40;99.90
21582;DHT22;10952;50.836;4.348;2022-10-16T07:34:52;15.30;99.90
21582;DHT22;10952;50.836;4.348;2022-10-16T07:37:18;15.40;99.90
21582;DHT22;10952;50.836;4.348;2022-10-16T07:39:44;15.40;99.90
21582;DHT22;10952;50.836;4.348;2022-10-16T07:42:09;15.50;99.90
21582;DHT22;10952;50.836;4.348;2022-10-16T07:44:35;15.60;99.90
21582;DHT22;10952;50.836;4.348;2022-10-16T07:47:01;15.50;99.90
21582;DHT22;10952;50.836;4.348;2022-10-16T07:49:27;15.60;99.90
21582;DHT22;10952;50.836;4.348;2022-10-16T07:51:53;15.60;99.90
21582;DHT22;10952;50.836;4.348;2022-10-16T07:54:19;15.50;99.90
21582;DHT22;10952;50.836;4.348;2022-10-16T07:56:44;15.50;99.90
21582;DHT22;10952;50.836;4.348;2022-10-16T07:59:10;15.60;99.90
21582;DHT22;10952;50.836;4.348;2022-10-16T08:01:36;15.60;99.90
21582;DHT22;10952;50.836;4.348;2022-10-16T08:04:01;15.60;99.90
21582;DHT22;10952;50.836;4.348;2022-10-16T08:06:27;15.80;99.90
21582;DHT22;10952;50.836;4.348;2022-10-16T08:08:53;15.80;99.90
21582;DHT22;10952;50.836;4.348;2022-10-16T08:11:18;15.90;99.90
21582;DHT22;10952;50.836;4.348;2022-10-16T08:13:44;15.90;99.90
21582;DHT22;10952;50.836;4.348;2022-10-16T08:16:10;15.90;99.90
21582;DHT22;10952;50.836;4.348;2022-10-16T08:18:39;15.90;99.90
21582;DHT22;10952;50.836;4.348;2022-10-16T08:21:08;15.90;99.90
21582;DHT22;10952;50.836;4.348;2022-10-16T08:23:36;15.90;99.90
21582;DHT22;10952;50.836;4.348;2022-10-16T08:26:05;15.90;99.90
21582;DHT22;10952;50.836;4.348;2022-10-16T08:28:31;15.90;99.90
21582;DHT22;10952;50.836;4.348;2022-10-16T08:31:05;15.90;99.90
21582;DHT22;10952;50.836;4.348;2022-10-16T08:33:31;15.90;99.90
21582;DHT22;10952;50.836;4.348;2022-10-16T08:35:56;16.00;99.90
21582;DHT22;10952;50.836;4.348;2022-10-16T08:38:22;16.10;99.90
21582;DHT22;10952;50.836;4.348;2022-10-16T08:40:48;16.20;99.90
21582;DHT22;10952;50.836;4.348;2022-10-16T08:48:58;16.30;99.90
21582;DHT22;10952;50.836;4.348;2022-10-16T08:51:26;16.30;99.90
21582;DHT22;10952;50.836;4.348;2022-10-16T08:54:06;16.20;99.90
21582;DHT22;10952;50.836;4.348;2022-10-16T08:56:37;16.30;99.90
21582;DHT22;10952;50.836;4.348;2022-10-16T08:59:06;16.30;99.90
21582;DHT22;10952;50.836;4.348;2022-10-16T09:01:41;16.40;99.90
21582;DHT22;10952;50.836;4.348;2022-10-16T09:04:27;16.50;99.90
21582;DHT22;10952;50.836;4.348;2022-10-16T09:06:59;16.50;99.90
21582;DHT22;10952;50.836;4.348;2022-10-16T09:09:49;16.50;99.90
21582;DHT22;10952;50.836;4.348;2022-10-16T09:12:31;16.60;99.90
21582;DHT22;10952;50.836;4.348;2022-10-16T09:15:11;16.60;99.90
21582;DHT22;10952;50.836;4.348;2022-10-16T09:17:59;16.70;99.90
21582;DHT22;10952;50.836;4.348;2022-10-16T09:20:49;16.70;99.90
21582;DHT22;10952;50.836;4.348;2022-10-16T09:23:27;16.70;99.90
21582;DHT22;10952;50.836;4.348;2022-10-16T09:25:55;16.80;99.90
21582;DHT22;10952;50.836;4.348;2022-10-16T09:28:21;16.90;99.90
21582;DHT22;10952;50.836;4.348;2022-10-16T09:30:47;16.90;99.90
21582;DHT22;10952;50.836;4.348;2022-10-16T09:33:18;16.90;99.90
21582;DHT22;10952;50.836;4.348;2022-10-16T09:35:50;17.00;99.90
21582;DHT22;10952;50.836;4.348;2022-10-16T09:38:34;17.10;99.90
21582;DHT22;10952;50.836;4.348;2022-10-16T09:41:21;17.20;99.90
21582;DHT22;10952;50.836;4.348;2022-10-16T09:43:57;17.30;99.90
21582;DHT22;10952;50.836;4.348;2022-10-16T09:46:42;17.40;99.90
21582;DHT22;10952;50.836;4.348;2022-10-16T09:49:22;17.60;99.90
21582;DHT22;10952;50.836;4.348;2022-10-16T09:51:50;17.60;99.90
21582;DHT22;10952;50.836;4.348;2022-10-16T09:54:18;17.60;99.90
21582;DHT22;10952;50.836;4.348;2022-10-16T09:56:44;17.70;99.90
21582;DHT22;10952;50.836;4.348;2022-10-16T09:59:16;17.80;99.90
21582;DHT22;10952;50.836;4.348;2022-10-16T10:01:53;17.90;99.90
21582;DHT22;10952;50.836;4.348;2022-10-16T10:04:20;17.90;99.90
21582;DHT22;10952;50.836;4.348;2022-10-16T10:06:56;18.00;99.90
21582;DHT22;10952;50.836;4.348;2022-10-16T10:12:03;18.20;99.90
21582;DHT22;10952;50.836;4.348;2022-10-16T10:14:38;18.30;99.90
21582;DHT22;10952;50.836;4.348;2022-10-16T10:19:52;18.50;99.90
21582;DHT22;10952;50.836;4.348;2022-10-16T10:24:56;18.50;99.90
21582;DHT22;10952;50.836;4.348;2022-10-16T10:27:27;18.60;99.90
21582;DHT22;10952;50.836;4.348;2022-10-16T10:33:00;18.90;99.90
21582;DHT22;10952;50.836;4.348;2022-10-16T10:36:02;18.90;99.90
21582;DHT22;10952;50.836;4.348;2022-10-16T10:49:47;20.70;99.90
21582;DHT22;10952;50.836;4.348;2022-10-16T11:00:58;23.00;99.90
21582;DHT22;10952;50.836;4.348;2022-10-16T11:03:54;23.40;99.90
21582;DHT22;10952;50.836;4.348;2022-10-16T11:08:53;24.10;99.90
21582;DHT22;10952;50.836;4.348;2022-10-16T11:11:32;24.00;99.90
21582;DHT22;10952;50.836;4.348;2022-10-16T11:16:37;24.50;99.90
21582;DHT22;10952;50.836;4.348;2022-10-16T11:21:33;24.00;99.90
21582;DHT22;10952;50.836;4.348;2022-10-16T11:24:23;24.10;99.90
21582;DHT22;10952;50.836;4.348;2022-10-16T11:26:52;25.00;99.90
21582;DHT22;10952;50.836;4.348;2022-10-16T11:29:31;25.20;99.90
21582;DHT22;10952;50.836;4.348;2022-10-16T11:32:03;25.20;99.90
21582;DHT22;10952;50.836;4.348;2022-10-16T11:34:50;25.40;99.90
21582;DHT22;10952;50.836;4.348;2022-10-16T11:37:24;25.60;99.90
21582;DHT22;10952;50.836;4.348;2022-10-16T11:39:52;25.80;99.90
21582;DHT22;10952;50.836;4.348;2022-10-16T11:42:44;25.40;99.90
21582;DHT22;10952;50.836;4.348;2022-10-16T11:47:45;25.10;99.90
21582;DHT22;10952;50.836;4.348;2022-10-16T11:50:17;24.90;99.90
21582;DHT22;10952;50.836;4.348;2022-10-16T11:52:51;24.80;99.90
21582;DHT22;10952;50.836;4.348;2022-10-16T11:55:20;24.40;99.90
21582;DHT22;10952;50.836;4.348;2022-10-16T11:57:54;24.00;99.90
21582;DHT22;10952;50.836;4.348;2022-10-16T12:00:31;23.60;99.90
21582;DHT22;10952;50.836;4.348;2022-10-16T12:06:44;23.30;99.90
21582;DHT22;10952;50.836;4.348;2022-10-16T12:08:46;23.20;99.90
21582;DHT22;10952;50.836;4.348;2022-10-16T12:11:34;23.10;99.90
21582;DHT22;10952;50.836;4.348;2022-10-16T12:16:39;23.30;99.90
21582;DHT22;10952;50.836;4.348;2022-10-16T12:19:16;23.40;99.90
21582;DHT22;10952;50.836;4.348;2022-10-16T12:21:43;23.10;99.90
21582;DHT22;10952;50.836;4.348;2022-10-16T12:26:56;22.40;99.90
21582;DHT22;10952;50.836;4.348;2022-10-16T12:31:56;22.50;99.90
21582;DHT22;10952;50.836;4.348;2022-10-16T12:34:29;22.70;99.90
21582;DHT22;10952;50.836;4.348;2022-10-16T12:37:53;22.60;99.90
21582;DHT22;10952;50.836;4.348;2022-10-16T12:39:55;22.40;99.90
21582;DHT22;10952;50.836;4.348;2022-10-16T12:42:22;22.10;99.90
21582;DHT22;10952;50.836;4.348;2022-10-16T12:44:48;22.00;99.90
21582;DHT22;10952;50.836;4.348;2022-10-16T12:47:35;22.00;99.90
21582;DHT22;10952;50.836;4.348;2022-10-16T12:50:01;22.10;99.90
21582;DHT22;10952;50.836;4.348;2022-10-16T12:55:02;22.30;99.90
21582;DHT22;10952;50.836;4.348;2022-10-16T12:57:58;22.30;99.90
21582;DHT22;10952;50.836;4.348;2022-10-16T13:00:48;22.10;99.90
21582;DHT22;10952;50.836;4.348;2022-10-16T13:13:55;22.20;99.90
21582;DHT22;10952;50.836;4.348;2022-10-16T13:19:17;22.30;99.90
21582;DHT22;10952;50.836;4.348;2022-10-16T13:22:10;22.00;99.90
21582;DHT22;10952;50.836;4.348;2022-10-16T13:27:48;21.60;99.90
21582;DHT22;10952;50.836;4.348;2022-10-16T13:30:34;21.60;99.90
21582;DHT22;10952;50.836;4.348;2022-10-16T13:35:52;21.70;99.90
21582;DHT22;10952;50.836;4.348;2022-10-16T13:38:26;21.70;99.90
21582;DHT22;10952;50.836;4.348;2022-10-16T13:41:05;21.70;99.90
21582;DHT22;10952;50.836;4.348;2022-10-16T13:43:38;21.80;99.90
21582;DHT22;10952;50.836;4.348;2022-10-16T13:46:17;21.60;99.90
21582;DHT22;10952;50.836;4.348;2022-10-16T13:48:44;21.30;99.90
21582;DHT22;10952;50.836;4.348;2022-10-16T13:51:19;21.40;99.90
21582;DHT22;10952;50.836;4.348;2022-10-16T13:53:45;21.30;99.90
21582;DHT22;10952;50.836;4.348;2022-10-16T13:56:14;21.20;99.90
21582;DHT22;10952;50.836;4.348;2022-10-16T13:58:41;21.10;99.90
21582;DHT22;10952;50.836;4.348;2022-10-16T14:01:42;21.20;99.90
21582;DHT22;10952;50.836;4.348;2022-10-16T14:04:11;21.20;99.90
21582;DHT22;10952;50.836;4.348;2022-10-16T14:06:43;21.10;99.90
21582;DHT22;10952;50.836;4.348;2022-10-16T14:09:26;21.10;99.90
21582;DHT22;10952;50.836;4.348;2022-10-16T14:12:00;20.90;99.90
21582;DHT22;10952;50.836;4.348;2022-10-16T14:14:34;21.00;99.90
21582;DHT22;10952;50.836;4.348;2022-10-16T14:17:02;21.00;99.90
21582;DHT22;10952;50.836;4.348;2022-10-16T14:19:29;21.00;99.90
21582;DHT22;10952;50.836;4.348;2022-10-16T14:21:56;20.90;99.90
21582;DHT22;10952;50.836;4.348;2022-10-16T14:26:56;21.00;99.90
21582;DHT22;10952;50.836;4.348;2022-10-16T14:29:24;21.00;99.90
21582;DHT22;10952;50.836;4.348;2022-10-16T14:32:05;20.90;99.90
21582;DHT22;10952;50.836;4.348;2022-10-16T14:34:33;20.70;99.90
21582;DHT22;10952;50.836;4.348;2022-10-16T14:37:05;20.70;99.90
21582;DHT22;10952;50.836;4.348;2022-10-16T14:39:33;20.80;99.90
21582;DHT22;10952;50.836;4.348;2022-10-16T14:41:59;20.70;99.90
21582;DHT22;10952;50.836;4.348;2022-10-16T14:44:31;20.60;99.90
21582;DHT22;10952;50.836;4.348;2022-10-16T14:46:57;20.50;99.90
21582;DHT22;10952;50.836;4.348;2022-10-16T14:49:25;20.40;99.90
21582;DHT22;10952;50.836;4.348;2022-10-16T14:51:51;20.30;99.90
21582;DHT22;10952;50.836;4.348;2022-10-16T14:54:18;20.40;99.90
21582;DHT22;10952;50.836;4.348;2022-10-16T14:56:53;20.30;99.90
21582;DHT22;10952;50.836;4.348;2022-10-16T14:59:27;20.20;99.90
21582;DHT22;10952;50.836;4.348;2022-10-16T15:01:54;20.20;99.90
21582;DHT22;10952;50.836;4.348;2022-10-16T15:04:19;20.10;99.90
21582;DHT22;10952;50.836;4.348;2022-10-16T15:06:45;20.20;99.90
21582;DHT22;10952;50.836;4.348;2022-10-16T15:09:11;20.30;99.90
21582;DHT22;10952;50.836;4.348;2022-10-16T15:11:37;20.30;99.90
21582;DHT22;10952;50.836;4.348;2022-10-16T15:14:03;20.40;99.90
21582;DHT22;10952;50.836;4.348;2022-10-16T15:16:29;20.40;99.90
21582;DHT22;10952;50.836;4.348;2022-10-16T15:18:55;20.30;99.90
21582;DHT22;10952;50.836;4.348;2022-10-16T15:21:29;20.30;99.90
21582;DHT22;10952;50.836;4.348;2022-10-16T15:23:56;20.10;99.90
21582;DHT22;10952;50.836;4.348;2022-10-16T15:26:24;20.10;99.90
21582;DHT22;10952;50.836;4.348;2022-10-16T15:28:50;20.20;99.90
21582;DHT22;10952;50.836;4.348;2022-10-16T15:31:15;20.20;99.90
21582;DHT22;10952;50.836;4.348;2022-10-16T15:33:41;20.30;99.90
21582;DHT22;10952;50.836;4.348;2022-10-16T15:36:07;20.20;99.90
21582;DHT22;10952;50.836;4.348;2022-10-16T15:38:33;20.20;99.90
21582;DHT22;10952;50.836;4.348;2022-10-16T15:40:59;20.10;99.90
21582;DHT22;10952;50.836;4.348;2022-10-16T15:43:24;20.20;99.90
21582;DHT22;10952;50.836;4.348;2022-10-16T15:46:03;20.10;99.90
21582;DHT22;10952;50.836;4.348;2022-10-16T15:48:32;20.10;99.90
21582;DHT22;10952;50.836;4.348;2022-10-16T15:50:58;20.20;99.90
21582;DHT22;10952;50.836;4.348;2022-10-16T15:53:23;20.30;99.90
21582;DHT22;10952;50.836;4.348;2022-10-16T15:55:49;20.30;99.90
21582;DHT22;10952;50.836;4.348;2022-10-16T15:58:15;20.20;99.90
21582;DHT22;10952;50.836;4.348;2022-10-16T16:00:40;20.10;99.90
21582;DHT22;10952;50.836;4.348;2022-10-16T16:03:06;20.10;99.90
21582;DHT22;10952;50.836;4.348;2022-10-16T16:05:32;20.10;99.90
21582;DHT22;10952;50.836;4.348;2022-10-16T16:07:59;20.10;99.90
21582;DHT22;10952;50.836;4.348;2022-10-16T16:10:24;20.10;99.90
21582;DHT22;10952;50.836;4.348;2022-10-16T16:12:50;20.20;99.90
21582;DHT22;10952;50.836;4.348;2022-10-16T16:15:19;20.10;99.90
21582;DHT22;10952;50.836;4.348;2022-10-16T16:17:45;20.00;99.90
21582;DHT22;10952;50.836;4.348;2022-10-16T16:20:11;20.00;99.90
21582;DHT22;10952;50.836;4.348;2022-10-16T16:22:37;20.00;99.90
21582;DHT22;10952;50.836;4.348;2022-10-16T16:25:03;20.00;99.90
21582;DHT22;10952;50.836;4.348;2022-10-16T16:27:29;19.90;99.90
21582;DHT22;10952;50.836;4.348;2022-10-16T16:29:58;19.90;99.90
21582;DHT22;10952;50.836;4.348;2022-10-16T16:32:23;19.90;99.90
21582;DHT22;10952;50.836;4.348;2022-10-16T16:34:49;19.90;99.90
21582;DHT22;10952;50.836;4.348;2022-10-16T16:37:15;19.90;99.90
21582;DHT22;10952;50.836;4.348;2022-10-16T16:39:40;19.90;99.90
21582;DHT22;10952;50.836;4.348;2022-10-16T16:42:06;19.70;99.90
21582;DHT22;10952;50.836;4.348;2022-10-16T16:44:33;19.70;99.90
21582;DHT22;10952;50.836;4.348;2022-10-16T16:46:58;19.50;99.90
21582;DHT22;10952;50.836;4.348;2022-10-16T16:49:24;19.60;99.90
21582;DHT22;10952;50.836;4.348;2022-10-16T16:51:50;19.60;99.90
21582;DHT22;10952;50.836;4.348;2022-10-16T16:54:15;19.50;99.90
21582;DHT22;10952;50.836;4.348;2022-10-16T16:56:41;19.50;99.90
21582;DHT22;10952;50.836;4.348;2022-10-16T16:59:15;19.50;99.90
21582;DHT22;10952;50.836;4.348;2022-10-16T17:01:41;19.50;99.90
21582;DHT22;10952;50.836;4.348;2022-10-16T17:04:07;19.50;99.90
21582;DHT22;10952;50.836;4.348;2022-10-16T17:06:33;19.50;99.90
21582;DHT22;10952;50.836;4.348;2022-10-16T17:09:00;19.30;99.90
21582;DHT22;10952;50.836;4.348;2022-10-16T17:11:27;19.40;99.90
21582;DHT22;10952;50.836;4.348;2022-10-16T17:13:55;19.30;99.90
21582;DHT22;10952;50.836;4.348;2022-10-16T17:16:22;19.20;99.90
21582;DHT22;10952;50.836;4.348;2022-10-16T17:18:48;19.00;99.90
21582;DHT22;10952;50.836;4.348;2022-10-16T17:21:14;18.60;99.90
21582;DHT22;10952;50.836;4.348;2022-10-16T17:23:39;18.50;99.90
21582;DHT22;10952;50.836;4.348;2022-10-16T17:26:11;18.30;99.90